sensor_id;sensor_type;location;lat;lon;timestamp;P1;durP1;ratioP1;P2;durP2;ratioP2
7213;SDS011;3648;50.614;13.830;2023-02-28T00:00:09;6.37;;;4.57;;
7213;SDS011;3648;50.614;13.830;2023-02-28T00:02:37;7.03;;;3.73;;
7213;SDS011;3648;50.614;13.830;2023-02-28T00:05:04;6.53;;;4.13;;
7213;SDS011;3648;50.614;13.830;2023-02-28T00:07:33;5.47;;;4.57;;
7213;SDS011;3648;50.614;13.830;2023-02-28T00:10:00;6.37;;;4.23;;
7213;SDS011;3648;50.614;13.830;2023-02-28T00:12:27;5.10;;;3.90;;
7213;SDS011;3648;50.614;13.830;2023-02-28T00:14:55;6.10;;;4.23;;
7213;SDS011;3648;50.614;13.830;2023-02-28T00:17:23;5.93;;;4.23;;
7213;SDS011;3648;50.614;13.830;2023-02-28T00:19:50;6.30;;;4.40;;
7213;SDS011;3648;50.614;13.830;2023-02-28T00:22:18;7.47;;;4.50;;
7213;SDS011;3648;50.614;13.830;2023-02-28T00:24:46;6.83;;;4.93;;
7213;SDS011;3648;50.614;13.830;2023-02-28T00:27:14;7.53;;;5.27;;
7213;SDS011;3648;50.614;13.830;2023-02-28T00:29:41;8.37;;;4.97;;
7213;SDS011;3648;50.614;13.830;2023-02-28T00:32:09;7.10;;;5.10;;
7213;SDS011;3648;50.614;13.830;2023-02-28T00:34:36;7.13;;;5.20;;
7213;SDS011;3648;50.614;13.830;2023-02-28T00:37:04;5.90;;;4.57;;
7213;SDS011;3648;50.614;13.830;2023-02-28T00:39:33;7.03;;;5.70;;
7213;SDS011;3648;50.614;13.830;2023-02-28T00:42:01;6.53;;;5.20;;
7213;SDS011;3648;50.614;13.830;2023-02-28T00:44:29;8.37;;;5.43;;
7213;SDS011;3648;50.614;13.830;2023-02-28T00:46:56;8.67;;;5.60;;
7213;SDS011;3648;50.614;13.830;2023-02-28T00:49:24;7.00;;;5.27;;
7213;SDS011;3648;50.614;13.830;2023-02-28T00:51:53;8.67;;;5.90;;
7213;SDS011;3648;50.614;13.830;2023-02-28T00:54:20;9.17;;;6.07;;
7213;SDS011;3648;50.614;13.830;2023-02-28T00:56:48;7.13;;;5.73;;
7213;SDS011;3648;50.614;13.830;2023-02-28T00:59:15;9.40;;;6.10;;
7213;SDS011;3648;50.614;13.830;2023-02-28T01:01:44;9.43;;;6.33;;
7213;SDS011;3648;50.614;13.830;2023-02-28T01:04:12;8.90;;;5.87;;
7213;SDS011;3648;50.614;13.830;2023-02-28T01:06:41;9.50;;;6.23;;
7213;SDS011;3648;50.614;13.830;2023-02-28T01:09:08;6.70;;;4.97;;
7213;SDS011;3648;50.614;13.830;2023-02-28T01:11:35;8.07;;;5.13;;
7213;SDS011;3648;50.614;13.830;2023-02-28T01:14:03;8.53;;;5.70;;
7213;SDS011;3648;50.614;13.830;2023-02-28T01:16:30;6.67;;;5.60;;
7213;SDS011;3648;50.614;13.830;2023-02-28T01:18:57;7.20;;;5.37;;
7213;SDS011;3648;50.614;13.830;2023-02-28T01:21:24;7.07;;;5.23;;
7213;SDS011;3648;50.614;13.830;2023-02-28T01:23:52;8.13;;;5.90;;
7213;SDS011;3648;50.614;13.830;2023-02-28T01:26:23;8.23;;;5.87;;
7213;SDS011;3648;50.614;13.830;2023-02-28T01:28:50;7.63;;;4.43;;
7213;SDS011;3648;50.614;13.830;2023-02-28T01:31:19;7.17;;;5.20;;
7213;SDS011;3648;50.614;13.830;2023-02-28T01:33:47;7.60;;;5.43;;
7213;SDS011;3648;50.614;13.830;2023-02-28T01:36:15;7.57;;;5.10;;
7213;SDS011;3648;50.614;13.830;2023-02-28T01:38:43;7.67;;;5.10;;
7213;SDS011;3648;50.614;13.830;2023-02-28T01:41:14;8.17;;;5.07;;
7213;SDS011;3648;50.614;13.830;2023-02-28T01:43:53;8.40;;;6.23;;
7213;SDS011;3648;50.614;13.830;2023-02-28T01:46:28;9.20;;;5.80;;
7213;SDS011;3648;50.614;13.830;2023-02-28T01:48:56;7.77;;;5.83;;
7213;SDS011;3648;50.614;13.830;2023-02-28T01:51:29;7.63;;;5.43;;
7213;SDS011;3648;50.614;13.830;2023-02-28T01:54:01;7.37;;;5.20;;
7213;SDS011;3648;50.614;13.830;2023-02-28T01:56:34;7.80;;;5.27;;
7213;SDS011;3648;50.614;13.830;2023-02-28T01:59:02;6.70;;;5.33;;
7213;SDS011;3648;50.614;13.830;2023-02-28T02:01:30;8.70;;;5.90;;
7213;SDS011;3648;50.614;13.830;2023-02-28T02:03:59;8.97;;;6.97;;
7213;SDS011;3648;50.614;13.830;2023-02-28T02:06:29;9.17;;;6.43;;
7213;SDS011;3648;50.614;13.830;2023-02-28T02:09:00;7.03;;;5.63;;
7213;SDS011;3648;50.614;13.830;2023-02-28T02:11:28;9.37;;;6.30;;
7213;SDS011;3648;50.614;13.830;2023-02-28T02:14:10;8.03;;;5.50;;
7213;SDS011;3648;50.614;13.830;2023-02-28T02:16:52;8.30;;;5.77;;
7213;SDS011;3648;50.614;13.830;2023-02-28T02:19:40;6.63;;;4.63;;
7213;SDS011;3648;50.614;13.830;2023-02-28T02:22:35;8.30;;;5.97;;
7213;SDS011;3648;50.614;13.830;2023-02-28T02:25:21;7.03;;;5.20;;
7213;SDS011;3648;50.614;13.830;2023-02-28T02:27:59;7.97;;;5.03;;
7213;SDS011;3648;50.614;13.830;2023-02-28T02:33:43;5.63;;;4.77;;
7213;SDS011;3648;50.614;13.830;2023-02-28T02:36:29;6.73;;;4.30;;
7213;SDS011;3648;50.614;13.830;2023-02-28T02:39:01;7.80;;;5.10;;
7213;SDS011;3648;50.614;13.830;2023-02-28T02:41:34;5.80;;;4.67;;
7213;SDS011;3648;50.614;13.830;2023-02-28T02:44:05;6.50;;;4.33;;
7213;SDS011;3648;50.614;13.830;2023-02-28T02:46:39;7.17;;;5.17;;
7213;SDS011;3648;50.614;13.830;2023-02-28T02:49:12;7.17;;;5.30;;
7213;SDS011;3648;50.614;13.830;2023-02-28T02:51:44;6.47;;;5.40;;
7213;SDS011;3648;50.614;13.830;2023-02-28T02:54:14;5.70;;;4.53;;
7213;SDS011;3648;50.614;13.830;2023-02-28T02:56:46;6.33;;;5.07;;
7213;SDS011;3648;50.614;13.830;2023-02-28T02:59:15;6.93;;;5.33;;
7213;SDS011;3648;50.614;13.830;2023-02-28T03:01:46;8.50;;;5.90;;
7213;SDS011;3648;50.614;13.830;2023-02-28T03:04:17;7.90;;;4.83;;
7213;SDS011;3648;50.614;13.830;2023-02-28T03:06:48;7.50;;;5.67;;
7213;SDS011;3648;50.614;13.830;2023-02-28T03:09:19;6.93;;;5.40;;
7213;SDS011;3648;50.614;13.830;2023-02-28T03:11:46;6.70;;;6.00;;
7213;SDS011;3648;50.614;13.830;2023-02-28T03:14:25;8.77;;;5.73;;
7213;SDS011;3648;50.614;13.830;2023-02-28T03:17:10;6.53;;;4.97;;
7213;SDS011;3648;50.614;13.830;2023-02-28T03:19:52;7.73;;;5.30;;
7213;SDS011;3648;50.614;13.830;2023-02-28T03:22:51;7.50;;;5.00;;
7213;SDS011;3648;50.614;13.830;2023-02-28T03:25:27;8.47;;;5.13;;
7213;SDS011;3648;50.614;13.830;2023-02-28T03:28:00;8.23;;;5.70;;
7213;SDS011;3648;50.614;13.830;2023-02-28T03:30:35;6.10;;;5.50;;
7213;SDS011;3648;50.614;13.830;2023-02-28T03:33:08;8.13;;;5.20;;
7213;SDS011;3648;50.614;13.830;2023-02-28T03:35:42;6.83;;;5.47;;
7213;SDS011;3648;50.614;13.830;2023-02-28T03:38:17;6.77;;;5.60;;
7213;SDS011;3648;50.614;13.830;2023-02-28T03:40:49;10.13;;;5.80;;
7213;SDS011;3648;50.614;13.830;2023-02-28T03:43:20;7.37;;;5.90;;
7213;SDS011;3648;50.614;13.830;2023-02-28T03:45:52;6.37;;;5.27;;
7213;SDS011;3648;50.614;13.830;2023-02-28T03:48:23;7.30;;;5.57;;
7213;SDS011;3648;50.614;13.830;2023-02-28T03:50:55;8.23;;;5.30;;
7213;SDS011;3648;50.614;13.830;2023-02-28T03:53:27;7.17;;;5.30;;
7213;SDS011;3648;50.614;13.830;2023-02-28T03:55:58;10.83;;;6.10;;
7213;SDS011;3648;50.614;13.830;2023-02-28T03:58:29;10.57;;;6.13;;
7213;SDS011;3648;50.614;13.830;2023-02-28T04:01:00;9.00;;;6.10;;
7213;SDS011;3648;50.614;13.830;2023-02-28T04:03:33;7.33;;;6.03;;
7213;SDS011;3648;50.614;13.830;2023-02-28T04:06:01;10.70;;;6.77;;
7213;SDS011;3648;50.614;13.830;2023-02-28T04:08:30;8.90;;;6.17;;
7213;SDS011;3648;50.614;13.830;2023-02-28T04:10:58;8.40;;;6.40;;
7213;SDS011;3648;50.614;13.830;2023-02-28T04:13:30;9.47;;;7.17;;
7213;SDS011;3648;50.614;13.830;2023-02-28T04:15:57;8.63;;;6.27;;
7213;SDS011;3648;50.614;13.830;2023-02-28T04:18:24;9.73;;;6.60;;
7213;SDS011;3648;50.614;13.830;2023-02-28T04:20:52;8.33;;;6.40;;
7213;SDS011;3648;50.614;13.830;2023-02-28T04:23:18;7.97;;;5.93;;
7213;SDS011;3648;50.614;13.830;2023-02-28T04:25:47;9.23;;;6.80;;
7213;SDS011;3648;50.614;13.830;2023-02-28T04:28:16;8.37;;;6.63;;
7213;SDS011;3648;50.614;13.830;2023-02-28T04:30:43;8.13;;;6.50;;
7213;SDS011;3648;50.614;13.830;2023-02-28T04:33:10;8.50;;;6.40;;
7213;SDS011;3648;50.614;13.830;2023-02-28T04:35:37;10.90;;;7.10;;
7213;SDS011;3648;50.614;13.830;2023-02-28T04:38:04;9.13;;;6.53;;
7213;SDS011;3648;50.614;13.830;2023-02-28T04:40:31;8.43;;;6.90;;
7213;SDS011;3648;50.614;13.830;2023-02-28T04:42:59;7.73;;;6.20;;
7213;SDS011;3648;50.614;13.830;2023-02-28T04:45:26;11.37;;;7.53;;
7213;SDS011;3648;50.614;13.830;2023-02-28T04:47:55;9.77;;;7.23;;
7213;SDS011;3648;50.614;13.830;2023-02-28T04:50:22;10.03;;;6.70;;
7213;SDS011;3648;50.614;13.830;2023-02-28T04:52:49;10.67;;;7.17;;
7213;SDS011;3648;50.614;13.830;2023-02-28T04:55:16;9.43;;;6.97;;
7213;SDS011;3648;50.614;13.830;2023-02-28T04:57:43;11.73;;;7.20;;
7213;SDS011;3648;50.614;13.830;2023-02-28T05:00:12;9.83;;;6.73;;
7213;SDS011;3648;50.614;13.830;2023-02-28T05:02:41;11.60;;;7.50;;
7213;SDS011;3648;50.614;13.830;2023-02-28T05:05:08;9.43;;;7.17;;
7213;SDS011;3648;50.614;13.830;2023-02-28T05:07:36;11.20;;;7.43;;
7213;SDS011;3648;50.614;13.830;2023-02-28T05:10:04;12.00;;;7.30;;
7213;SDS011;3648;50.614;13.830;2023-02-28T05:12:31;9.13;;;6.50;;
7213;SDS011;3648;50.614;13.830;2023-02-28T05:14:58;9.70;;;6.93;;
7213;SDS011;3648;50.614;13.830;2023-02-28T05:17:28;10.47;;;7.87;;
7213;SDS011;3648;50.614;13.830;2023-02-28T05:19:55;10.47;;;7.17;;
7213;SDS011;3648;50.614;13.830;2023-02-28T05:22:22;9.40;;;7.13;;
7213;SDS011;3648;50.614;13.830;2023-02-28T05:24:49;9.07;;;7.23;;
7213;SDS011;3648;50.614;13.830;2023-02-28T05:27:16;10.67;;;7.37;;
7213;SDS011;3648;50.614;13.830;2023-02-28T05:29:43;12.23;;;7.40;;
7213;SDS011;3648;50.614;13.830;2023-02-28T05:32:10;11.13;;;7.30;;
7213;SDS011;3648;50.614;13.830;2023-02-28T05:34:39;10.57;;;7.03;;
7213;SDS011;3648;50.614;13.830;2023-02-28T05:37:08;11.33;;;6.80;;
7213;SDS011;3648;50.614;13.830;2023-02-28T05:39:38;11.23;;;7.27;;
7213;SDS011;3648;50.614;13.830;2023-02-28T05:42:05;9.47;;;7.43;;
7213;SDS011;3648;50.614;13.830;2023-02-28T05:44:32;11.50;;;7.00;;
7213;SDS011;3648;50.614;13.830;2023-02-28T05:47:00;10.47;;;7.80;;
7213;SDS011;3648;50.614;13.830;2023-02-28T05:49:27;11.57;;;8.17;;
7213;SDS011;3648;50.614;13.830;2023-02-28T05:51:56;9.47;;;6.70;;
7213;SDS011;3648;50.614;13.830;2023-02-28T05:54:23;10.67;;;7.57;;
7213;SDS011;3648;50.614;13.830;2023-02-28T05:56:50;8.80;;;7.83;;
7213;SDS011;3648;50.614;13.830;2023-02-28T05:59:17;10.53;;;7.33;;
7213;SDS011;3648;50.614;13.830;2023-02-28T06:01:44;10.33;;;7.30;;
7213;SDS011;3648;50.614;13.830;2023-02-28T06:04:13;25.17;;;16.80;;
7213;SDS011;3648;50.614;13.830;2023-02-28T06:06:44;22.57;;;17.40;;
7213;SDS011;3648;50.614;13.830;2023-02-28T06:09:12;18.00;;;13.00;;
7213;SDS011;3648;50.614;13.830;2023-02-28T06:11:40;24.07;;;17.67;;
7213;SDS011;3648;50.614;13.830;2023-02-28T06:14:07;32.87;;;24.03;;
7213;SDS011;3648;50.614;13.830;2023-02-28T06:16:40;33.07;;;24.37;;
7213;SDS011;3648;50.614;13.830;2023-02-28T06:19:08;51.93;;;33.30;;
7213;SDS011;3648;50.614;13.830;2023-02-28T06:21:36;57.10;;;32.83;;
7213;SDS011;3648;50.614;13.830;2023-02-28T06:24:03;65.83;;;38.80;;
7213;SDS011;3648;50.614;13.830;2023-02-28T06:26:32;107.23;;;63.30;;
7213;SDS011;3648;50.614;13.830;2023-02-28T06:28:59;101.37;;;57.57;;
7213;SDS011;3648;50.614;13.830;2023-02-28T06:31:26;56.13;;;38.23;;
7213;SDS011;3648;50.614;13.830;2023-02-28T06:33:54;38.97;;;27.73;;
7213;SDS011;3648;50.614;13.830;2023-02-28T06:36:21;40.03;;;29.60;;
7213;SDS011;3648;50.614;13.830;2023-02-28T06:38:48;36.57;;;27.50;;
7213;SDS011;3648;50.614;13.830;2023-02-28T06:41:19;32.80;;;24.13;;
7213;SDS011;3648;50.614;13.830;2023-02-28T06:43:48;31.13;;;22.87;;
7213;SDS011;3648;50.614;13.830;2023-02-28T06:46:16;26.03;;;18.57;;
7213;SDS011;3648;50.614;13.830;2023-02-28T06:48:42;22.80;;;15.70;;
7213;SDS011;3648;50.614;13.830;2023-02-28T06:51:10;24.73;;;17.80;;
7213;SDS011;3648;50.614;13.830;2023-02-28T06:53:39;21.70;;;15.30;;
7213;SDS011;3648;50.614;13.830;2023-02-28T06:56:07;25.50;;;20.37;;
7213;SDS011;3648;50.614;13.830;2023-02-28T06:58:36;21.43;;;17.07;;
7213;SDS011;3648;50.614;13.830;2023-02-28T07:01:05;24.63;;;19.77;;
7213;SDS011;3648;50.614;13.830;2023-02-28T07:03:34;21.60;;;18.60;;
7213;SDS011;3648;50.614;13.830;2023-02-28T07:06:01;20.17;;;15.00;;
7213;SDS011;3648;50.614;13.830;2023-02-28T07:08:29;18.50;;;14.77;;
7213;SDS011;3648;50.614;13.830;2023-02-28T07:10:56;21.23;;;15.87;;
7213;SDS011;3648;50.614;13.830;2023-02-28T07:13:24;20.87;;;16.00;;
7213;SDS011;3648;50.614;13.830;2023-02-28T07:15:54;20.50;;;14.20;;
7213;SDS011;3648;50.614;13.830;2023-02-28T07:18:23;19.00;;;14.60;;
7213;SDS011;3648;50.614;13.830;2023-02-28T07:20:50;14.07;;;10.93;;
7213;SDS011;3648;50.614;13.830;2023-02-28T07:23:17;19.97;;;15.47;;
7213;SDS011;3648;50.614;13.830;2023-02-28T07:25:44;14.97;;;10.80;;
7213;SDS011;3648;50.614;13.830;2023-02-28T07:28:11;14.73;;;11.47;;
7213;SDS011;3648;50.614;13.830;2023-02-28T07:30:39;13.40;;;10.50;;
7213;SDS011;3648;50.614;13.830;2023-02-28T07:33:06;14.53;;;10.20;;
7213;SDS011;3648;50.614;13.830;2023-02-28T07:35:34;14.90;;;10.50;;
7213;SDS011;3648;50.614;13.830;2023-02-28T07:38:02;13.87;;;9.10;;
7213;SDS011;3648;50.614;13.830;2023-02-28T07:40:30;19.90;;;13.77;;
7213;SDS011;3648;50.614;13.830;2023-02-28T07:42:58;9.70;;;8.53;;
7213;SDS011;3648;50.614;13.830;2023-02-28T07:45:26;17.07;;;12.40;;
7213;SDS011;3648;50.614;13.830;2023-02-28T07:47:53;13.13;;;9.50;;
7213;SDS011;3648;50.614;13.830;2023-02-28T07:50:21;12.27;;;8.73;;
7213;SDS011;3648;50.614;13.830;2023-02-28T07:52:49;11.40;;;8.20;;
7213;SDS011;3648;50.614;13.830;2023-02-28T07:55:16;12.30;;;9.17;;
7213;SDS011;3648;50.614;13.830;2023-02-28T07:57:43;15.03;;;10.80;;
7213;SDS011;3648;50.614;13.830;2023-02-28T08:00:11;15.63;;;12.87;;
7213;SDS011;3648;50.614;13.830;2023-02-28T08:02:38;15.93;;;11.53;;
7213;SDS011;3648;50.614;13.830;2023-02-28T08:05:06;11.77;;;9.57;;
7213;SDS011;3648;50.614;13.830;2023-02-28T08:07:33;14.53;;;11.27;;
7213;SDS011;3648;50.614;13.830;2023-02-28T08:10:02;16.13;;;10.90;;
7213;SDS011;3648;50.614;13.830;2023-02-28T08:12:30;11.00;;;9.33;;
7213;SDS011;3648;50.614;13.830;2023-02-28T08:14:58;10.50;;;7.87;;
7213;SDS011;3648;50.614;13.830;2023-02-28T08:17:24;8.10;;;7.17;;
7213;SDS011;3648;50.614;13.830;2023-02-28T08:19:51;11.20;;;8.90;;
7213;SDS011;3648;50.614;13.830;2023-02-28T08:22:18;13.03;;;8.47;;
7213;SDS011;3648;50.614;13.830;2023-02-28T08:24:45;9.17;;;7.53;;
7213;SDS011;3648;50.614;13.830;2023-02-28T08:27:14;13.27;;;10.17;;
7213;SDS011;3648;50.614;13.830;2023-02-28T08:29:41;9.63;;;7.33;;
7213;SDS011;3648;50.614;13.830;2023-02-28T08:32:07;10.67;;;7.87;;
7213;SDS011;3648;50.614;13.830;2023-02-28T08:34:34;9.67;;;7.57;;
7213;SDS011;3648;50.614;13.830;2023-02-28T08:37:01;8.23;;;6.63;;
7213;SDS011;3648;50.614;13.830;2023-02-28T08:39:28;7.60;;;6.37;;
7213;SDS011;3648;50.614;13.830;2023-02-28T08:41:56;7.23;;;5.63;;
7213;SDS011;3648;50.614;13.830;2023-02-28T08:44:25;6.87;;;5.33;;
7213;SDS011;3648;50.614;13.830;2023-02-28T08:46:52;6.47;;;5.57;;
7213;SDS011;3648;50.614;13.830;2023-02-28T08:49:19;8.80;;;6.77;;
7213;SDS011;3648;50.614;13.830;2023-02-28T08:51:46;9.13;;;7.17;;
7213;SDS011;3648;50.614;13.830;2023-02-28T08:54:13;9.90;;;6.87;;
7213;SDS011;3648;50.614;13.830;2023-02-28T08:56:44;9.53;;;7.93;;
7213;SDS011;3648;50.614;13.830;2023-02-28T08:59:11;7.93;;;6.70;;
7213;SDS011;3648;50.614;13.830;2023-02-28T09:01:39;7.57;;;5.80;;
7213;SDS011;3648;50.614;13.830;2023-02-28T09:04:08;7.90;;;5.90;;
7213;SDS011;3648;50.614;13.830;2023-02-28T09:06:36;8.63;;;5.20;;
7213;SDS011;3648;50.614;13.830;2023-02-28T09:09:04;7.63;;;5.47;;
7213;SDS011;3648;50.614;13.830;2023-02-28T09:11:32;7.87;;;5.57;;
7213;SDS011;3648;50.614;13.830;2023-02-28T09:13:59;6.87;;;4.93;;
7213;SDS011;3648;50.614;13.830;2023-02-28T09:16:28;5.43;;;4.90;;
7213;SDS011;3648;50.614;13.830;2023-02-28T09:18:57;6.90;;;4.93;;
7213;SDS011;3648;50.614;13.830;2023-02-28T09:21:25;5.50;;;4.90;;
7213;SDS011;3648;50.614;13.830;2023-02-28T09:23:52;5.80;;;5.03;;
7213;SDS011;3648;50.614;13.830;2023-02-28T09:26:20;6.77;;;5.37;;
7213;SDS011;3648;50.614;13.830;2023-02-28T09:28:48;6.80;;;5.57;;
7213;SDS011;3648;50.614;13.830;2023-02-28T09:31:17;5.00;;;4.50;;
7213;SDS011;3648;50.614;13.830;2023-02-28T09:33:46;5.80;;;4.50;;
7213;SDS011;3648;50.614;13.830;2023-02-28T09:36:15;5.33;;;4.77;;
7213;SDS011;3648;50.614;13.830;2023-02-28T09:38:42;6.47;;;4.77;;
7213;SDS011;3648;50.614;13.830;2023-02-28T09:41:12;5.30;;;4.50;;
7213;SDS011;3648;50.614;13.830;2023-02-28T09:43:41;7.40;;;4.80;;
7213;SDS011;3648;50.614;13.830;2023-02-28T09:46:14;6.17;;;4.17;;
7213;SDS011;3648;50.614;13.830;2023-02-28T09:48:51;4.60;;;4.10;;
7213;SDS011;3648;50.614;13.830;2023-02-28T09:51:30;5.27;;;3.93;;
7213;SDS011;3648;50.614;13.830;2023-02-28T09:54:04;4.47;;;3.30;;
7213;SDS011;3648;50.614;13.830;2023-02-28T09:56:33;4.90;;;3.93;;
7213;SDS011;3648;50.614;13.830;2023-02-28T09:59:04;6.77;;;3.80;;
7213;SDS011;3648;50.614;13.830;2023-02-28T10:01:37;4.57;;;3.70;;
7213;SDS011;3648;50.614;13.830;2023-02-28T10:04:11;5.40;;;3.50;;
7213;SDS011;3648;50.614;13.830;2023-02-28T10:06:48;4.63;;;3.47;;
7213;SDS011;3648;50.614;13.830;2023-02-28T10:09:17;4.73;;;3.87;;
7213;SDS011;3648;50.614;13.830;2023-02-28T10:11:49;5.47;;;3.70;;
7213;SDS011;3648;50.614;13.830;2023-02-28T10:14:18;4.63;;;3.80;;
7213;SDS011;3648;50.614;13.830;2023-02-28T10:16:47;5.27;;;4.23;;
7213;SDS011;3648;50.614;13.830;2023-02-28T10:19:21;3.90;;;3.43;;
7213;SDS011;3648;50.614;13.830;2023-02-28T10:21:55;4.43;;;3.47;;
7213;SDS011;3648;50.614;13.830;2023-02-28T10:24:26;4.90;;;3.60;;
7213;SDS011;3648;50.614;13.830;2023-02-28T10:26:59;5.53;;;4.03;;
7213;SDS011;3648;50.614;13.830;2023-02-28T10:29:28;4.53;;;3.80;;
7213;SDS011;3648;50.614;13.830;2023-02-28T10:31:59;5.07;;;4.03;;
7213;SDS011;3648;50.614;13.830;2023-02-28T10:34:28;5.93;;;4.27;;
7213;SDS011;3648;50.614;13.830;2023-02-28T10:36:57;5.23;;;4.10;;
7213;SDS011;3648;50.614;13.830;2023-02-28T10:39:39;4.37;;;3.90;;
7213;SDS011;3648;50.614;13.830;2023-02-28T10:42:21;5.20;;;3.53;;
7213;SDS011;3648;50.614;13.830;2023-02-28T10:45:04;4.23;;;3.80;;
7213;SDS011;3648;50.614;13.830;2023-02-28T10:47:33;4.77;;;4.03;;
7213;SDS011;3648;50.614;13.830;2023-02-28T10:50:04;3.90;;;3.50;;
7213;SDS011;3648;50.614;13.830;2023-02-28T10:52:33;5.23;;;3.90;;
7213;SDS011;3648;50.614;13.830;2023-02-28T10:55:14;5.77;;;3.90;;
7213;SDS011;3648;50.614;13.830;2023-02-28T10:57:45;6.37;;;4.10;;
7213;SDS011;3648;50.614;13.830;2023-02-28T11:00:14;7.07;;;4.67;;
7213;SDS011;3648;50.614;13.830;2023-02-28T11:02:43;5.47;;;4.33;;
7213;SDS011;3648;50.614;13.830;2023-02-28T11:05:24;5.73;;;3.93;;
7213;SDS011;3648;50.614;13.830;2023-02-28T11:07:55;4.40;;;4.00;;
7213;SDS011;3648;50.614;13.830;2023-02-28T11:10:25;5.30;;;4.13;;
7213;SDS011;3648;50.614;13.830;2023-02-28T11:12:57;6.63;;;4.40;;
7213;SDS011;3648;50.614;13.830;2023-02-28T11:15:25;5.03;;;4.30;;
7213;SDS011;3648;50.614;13.830;2023-02-28T11:17:53;6.17;;;4.37;;
7213;SDS011;3648;50.614;13.830;2023-02-28T11:20:23;5.27;;;4.23;;
7213;SDS011;3648;50.614;13.830;2023-02-28T11:22:54;5.97;;;4.87;;
7213;SDS011;3648;50.614;13.830;2023-02-28T11:25:24;5.47;;;4.50;;
7213;SDS011;3648;50.614;13.830;2023-02-28T11:27:53;6.10;;;4.37;;
7213;SDS011;3648;50.614;13.830;2023-02-28T11:30:25;5.77;;;4.60;;
7213;SDS011;3648;50.614;13.830;2023-02-28T11:32:58;7.87;;;5.37;;
7213;SDS011;3648;50.614;13.830;2023-02-28T11:35:27;5.53;;;4.10;;
7213;SDS011;3648;50.614;13.830;2023-02-28T11:37:58;6.17;;;3.83;;
7213;SDS011;3648;50.614;13.830;2023-02-28T11:40:28;5.60;;;5.10;;
7213;SDS011;3648;50.614;13.830;2023-02-28T11:43:02;5.67;;;4.40;;
7213;SDS011;3648;50.614;13.830;2023-02-28T11:45:44;5.73;;;4.57;;
7213;SDS011;3648;50.614;13.830;2023-02-28T11:48:20;6.53;;;4.67;;
7213;SDS011;3648;50.614;13.830;2023-02-28T11:51:02;5.80;;;4.30;;
7213;SDS011;3648;50.614;13.830;2023-02-28T11:56:43;5.13;;;4.43;;
7213;SDS011;3648;50.614;13.830;2023-02-28T11:59:24;6.60;;;4.40;;
7213;SDS011;3648;50.614;13.830;2023-02-28T12:02:20;5.70;;;4.57;;
7213;SDS011;3648;50.614;13.830;2023-02-28T12:04:52;5.03;;;4.23;;
7213;SDS011;3648;50.614;13.830;2023-02-28T12:07:31;4.63;;;3.70;;
7213;SDS011;3648;50.614;13.830;2023-02-28T12:10:10;5.10;;;4.60;;
7213;SDS011;3648;50.614;13.830;2023-02-28T12:12:48;4.90;;;4.43;;
7213;SDS011;3648;50.614;13.830;2023-02-28T12:15:33;4.90;;;4.30;;
7213;SDS011;3648;50.614;13.830;2023-02-28T12:21:14;5.33;;;4.17;;
7213;SDS011;3648;50.614;13.830;2023-02-28T12:24:00;4.83;;;4.20;;
7213;SDS011;3648;50.614;13.830;2023-02-28T12:26:47;6.80;;;4.33;;
7213;SDS011;3648;50.614;13.830;2023-02-28T12:29:17;5.03;;;4.10;;
7213;SDS011;3648;50.614;13.830;2023-02-28T12:31:49;5.67;;;4.43;;
7213;SDS011;3648;50.614;13.830;2023-02-28T12:34:20;6.63;;;4.77;;
7213;SDS011;3648;50.614;13.830;2023-02-28T12:36:51;5.80;;;4.37;;
7213;SDS011;3648;50.614;13.830;2023-02-28T12:39:23;5.73;;;4.60;;
7213;SDS011;3648;50.614;13.830;2023-02-28T12:41:54;5.13;;;4.60;;
7213;SDS011;3648;50.614;13.830;2023-02-28T12:44:27;6.90;;;5.17;;
7213;SDS011;3648;50.614;13.830;2023-02-28T12:46:58;6.07;;;5.37;;
7213;SDS011;3648;50.614;13.830;2023-02-28T12:49:30;6.30;;;5.40;;
7213;SDS011;3648;50.614;13.830;2023-02-28T12:52:00;7.10;;;5.33;;
7213;SDS011;3648;50.614;13.830;2023-02-28T12:54:29;5.37;;;4.83;;
7213;SDS011;3648;50.614;13.830;2023-02-28T12:57:08;5.47;;;4.43;;
7213;SDS011;3648;50.614;13.830;2023-02-28T12:59:40;5.40;;;4.57;;
7213;SDS011;3648;50.614;13.830;2023-02-28T13:02:42;5.23;;;4.30;;
7213;SDS011;3648;50.614;13.830;2023-02-28T13:05:46;5.50;;;4.57;;
7213;SDS011;3648;50.614;13.830;2023-02-28T13:08:32;5.07;;;4.57;;
7213;SDS011;3648;50.614;13.830;2023-02-28T13:11:23;4.77;;;4.27;;
7213;SDS011;3648;50.614;13.830;2023-02-28T13:13:58;6.37;;;4.37;;
7213;SDS011;3648;50.614;13.830;2023-02-28T13:16:26;4.87;;;4.37;;
7213;SDS011;3648;50.614;13.830;2023-02-28T13:18:53;6.67;;;4.43;;
7213;SDS011;3648;50.614;13.830;2023-02-28T13:21:41;7.40;;;4.30;;
7213;SDS011;3648;50.614;13.830;2023-02-28T13:24:10;6.33;;;4.50;;
7213;SDS011;3648;50.614;13.830;2023-02-28T13:27:11;5.23;;;4.47;;
7213;SDS011;3648;50.614;13.830;2023-02-28T13:29:58;5.17;;;4.33;;
7213;SDS011;3648;50.614;13.830;2023-02-28T13:38:15;6.87;;;4.13;;
7213;SDS011;3648;50.614;13.830;2023-02-28T13:44:14;6.60;;;4.87;;
7213;SDS011;3648;50.614;13.830;2023-02-28T13:49:47;6.67;;;5.37;;
7213;SDS011;3648;50.614;13.830;2023-02-28T13:52:16;5.43;;;4.93;;
7213;SDS011;3648;50.614;13.830;2023-02-28T13:54:52;6.00;;;4.80;;
7213;SDS011;3648;50.614;13.830;2023-02-28T13:57:43;6.10;;;5.20;;
7213;SDS011;3648;50.614;13.830;2023-02-28T14:00:23;6.17;;;4.70;;
7213;SDS011;3648;50.614;13.830;2023-02-28T14:06:10;6.50;;;5.10;;
7213;SDS011;3648;50.614;13.830;2023-02-28T14:08:51;6.73;;;5.27;;
7213;SDS011;3648;50.614;13.830;2023-02-28T14:11:26;6.27;;;5.37;;
7213;SDS011;3648;50.614;13.830;2023-02-28T14:13:56;5.60;;;4.97;;
7213;SDS011;3648;50.614;13.830;2023-02-28T14:16:24;6.57;;;5.13;;
7213;SDS011;3648;50.614;13.830;2023-02-28T14:18:55;6.07;;;5.13;;
7213;SDS011;3648;50.614;13.830;2023-02-28T14:21:26;6.33;;;4.87;;
7213;SDS011;3648;50.614;13.830;2023-02-28T14:24:22;6.03;;;5.00;;
7213;SDS011;3648;50.614;13.830;2023-02-28T14:27:05;5.97;;;4.80;;
7213;SDS011;3648;50.614;13.830;2023-02-28T14:29:46;5.43;;;4.80;;
7213;SDS011;3648;50.614;13.830;2023-02-28T14:32:47;6.13;;;4.77;;
7213;SDS011;3648;50.614;13.830;2023-02-28T14:35:35;5.90;;;4.67;;
7213;SDS011;3648;50.614;13.830;2023-02-28T14:38:16;5.63;;;5.00;;
7213;SDS011;3648;50.614;13.830;2023-02-28T14:40:46;6.00;;;5.37;;
7213;SDS011;3648;50.614;13.830;2023-02-28T14:43:19;5.73;;;4.90;;
7213;SDS011;3648;50.614;13.830;2023-02-28T14:45:51;5.23;;;4.63;;
7213;SDS011;3648;50.614;13.830;2023-02-28T14:48:21;5.97;;;4.60;;
7213;SDS011;3648;50.614;13.830;2023-02-28T14:50:51;6.57;;;5.37;;
7213;SDS011;3648;50.614;13.830;2023-02-28T14:53:22;7.03;;;5.47;;
7213;SDS011;3648;50.614;13.830;2023-02-28T14:55:52;5.67;;;5.17;;
7213;SDS011;3648;50.614;13.830;2023-02-28T14:58:23;6.13;;;5.43;;
7213;SDS011;3648;50.614;13.830;2023-02-28T15:00:52;8.23;;;5.67;;
7213;SDS011;3648;50.614;13.830;2023-02-28T15:03:21;7.43;;;5.53;;
7213;SDS011;3648;50.614;13.830;2023-02-28T15:05:51;6.63;;;5.33;;
7213;SDS011;3648;50.614;13.830;2023-02-28T15:08:22;5.57;;;4.87;;
7213;SDS011;3648;50.614;13.830;2023-02-28T15:10:51;6.67;;;5.13;;
7213;SDS011;3648;50.614;13.830;2023-02-28T15:13:20;6.13;;;5.53;;
7213;SDS011;3648;50.614;13.830;2023-02-28T15:15:50;5.77;;;5.10;;
7213;SDS011;3648;50.614;13.830;2023-02-28T15:18:23;6.13;;;4.97;;
7213;SDS011;3648;50.614;13.830;2023-02-28T15:20:56;6.13;;;5.27;;
7213;SDS011;3648;50.614;13.830;2023-02-28T15:23:26;6.03;;;4.57;;
7213;SDS011;3648;50.614;13.830;2023-02-28T15:25:54;5.20;;;4.53;;
7213;SDS011;3648;50.614;13.830;2023-02-28T15:28:22;6.23;;;4.97;;
7213;SDS011;3648;50.614;13.830;2023-02-28T15:30:51;6.43;;;5.53;;
7213;SDS011;3648;50.614;13.830;2023-02-28T15:33:24;5.37;;;4.50;;
7213;SDS011;3648;50.614;13.830;2023-02-28T15:36:02;7.10;;;4.70;;
7213;SDS011;3648;50.614;13.830;2023-02-28T15:38:38;6.67;;;5.10;;
7213;SDS011;3648;50.614;13.830;2023-02-28T15:41:05;7.03;;;4.67;;
7213;SDS011;3648;50.614;13.830;2023-02-28T15:43:47;7.50;;;5.17;;